sensor_id;sensor_type;location;lat;lon;timestamp;temperature;humidity
666;DHT22;315;48.738;9.126;2022-07-29T00:00:11;20.60;99.90
666;DHT22;315;48.738;9.126;2022-07-29T00:02:36;20.70;99.90
666;DHT22;315;48.738;9.126;2022-07-29T00:05:03;20.70;99.90
666;DHT22;315;48.738;9.126;2022-07-29T00:07:29;20.60;99.90
666;DHT22;315;48.738;9.126;2022-07-29T00:09:56;20.50;99.90
666;DHT22;315;48.738;9.126;2022-07-29T00:12:24;20.50;99.90
666;DHT22;315;48.738;9.126;2022-07-29T00:14:50;20.50;99.90
666;DHT22;315;48.738;9.126;2022-07-29T00:17:15;20.40;99.90
666;DHT22;315;48.738;9.126;2022-07-29T00:19:41;20.20;99.90
666;DHT22;315;48.738;9.126;2022-07-29T00:22:06;20.10;99.90
666;DHT22;315;48.738;9.126;2022-07-29T00:24:32;20.10;99.90
666;DHT22;315;48.738;9.126;2022-07-29T00:26:57;20.20;99.90
666;DHT22;315;48.738;9.126;2022-07-29T00:29:23;20.40;99.90
666;DHT22;315;48.738;9.126;2022-07-29T00:31:49;20.40;99.90
666;DHT22;315;48.738;9.126;2022-07-29T00:34:14;20.30;99.90
666;DHT22;315;48.738;9.126;2022-07-29T00:36:58;20.20;99.90
666;DHT22;315;48.738;9.126;2022-07-29T00:39:24;20.30;99.90
666;DHT22;315;48.738;9.126;2022-07-29T00:41:50;20.30;99.90
666;DHT22;315;48.738;9.126;2022-07-29T00:44:15;20.10;99.90
666;DHT22;315;48.738;9.126;2022-07-29T00:46:41;20.10;99.90
666;DHT22;315;48.738;9.126;2022-07-29T00:49:07;20.00;99.90
666;DHT22;315;48.738;9.126;2022-07-29T00:51:35;19.80;99.90
666;DHT22;315;48.738;9.126;2022-07-29T00:54:01;19.80;99.90
666;DHT22;315;48.738;9.126;2022-07-29T00:56:30;19.80;99.90
666;DHT22;315;48.738;9.126;2022-07-29T00:58:56;19.80;99.90
666;DHT22;315;48.738;9.126;2022-07-29T01:01:22;19.90;99.90
666;DHT22;315;48.738;9.126;2022-07-29T01:03:47;19.90;99.90
666;DHT22;315;48.738;9.126;2022-07-29T01:06:14;19.90;99.90
666;DHT22;315;48.738;9.126;2022-07-29T01:08:40;19.90;99.90
666;DHT22;315;48.738;9.126;2022-07-29T01:11:05;19.90;99.90
666;DHT22;315;48.738;9.126;2022-07-29T01:13:32;20.00;99.90
666;DHT22;315;48.738;9.126;2022-07-29T01:16:45;19.90;99.90
666;DHT22;315;48.738;9.126;2022-07-29T01:18:56;19.90;99.90
666;DHT22;315;48.738;9.126;2022-07-29T01:27:12;19.80;99.90
666;DHT22;315;48.738;9.126;2022-07-29T01:29:42;19.70;99.90
666;DHT22;315;48.738;9.126;2022-07-29T01:32:12;19.60;99.90
666;DHT22;315;48.738;9.126;2022-07-29T01:34:51;19.60;99.90
666;DHT22;315;48.738;9.126;2022-07-29T01:37:22;19.60;99.90
666;DHT22;315;48.738;9.126;2022-07-29T01:39:50;19.80;99.90
666;DHT22;315;48.738;9.126;2022-07-29T01:45:17;19.90;99.90
666;DHT22;315;48.738;9.126;2022-07-29T01:47:54;19.80;99.90
666;DHT22;315;48.738;9.126;2022-07-29T01:50:28;19.90;99.90
666;DHT22;315;48.738;9.126;2022-07-29T01:53:05;19.80;99.90
666;DHT22;315;48.738;9.126;2022-07-29T01:55:35;19.90;99.90
666;DHT22;315;48.738;9.126;2022-07-29T01:58:03;19.90;99.90
666;DHT22;315;48.738;9.126;2022-07-29T02:00:31;19.90;99.90
666;DHT22;315;48.738;9.126;2022-07-29T02:02:59;19.90;99.90
666;DHT22;315;48.738;9.126;2022-07-29T02:05:27;19.90;99.90
666;DHT22;315;48.738;9.126;2022-07-29T02:07:55;20.00;99.90
666;DHT22;315;48.738;9.126;2022-07-29T02:10:26;20.00;99.90
666;DHT22;315;48.738;9.126;2022-07-29T02:12:54;20.00;99.90
666;DHT22;315;48.738;9.126;2022-07-29T02:15:23;19.80;99.90
666;DHT22;315;48.738;9.126;2022-07-29T02:17:53;19.90;99.90
666;DHT22;315;48.738;9.126;2022-07-29T02:20:22;19.70;99.90
666;DHT22;315;48.738;9.126;2022-07-29T02:22:49;19.60;99.90
666;DHT22;315;48.738;9.126;2022-07-29T02:25:16;19.40;99.90
666;DHT22;315;48.738;9.126;2022-07-29T02:27:43;19.40;99.90
666;DHT22;315;48.738;9.126;2022-07-29T02:30:10;19.20;99.90
666;DHT22;315;48.738;9.126;2022-07-29T02:32:39;19.00;99.90
666;DHT22;315;48.738;9.126;2022-07-29T02:35:06;19.10;99.90
666;DHT22;315;48.738;9.126;2022-07-29T02:37:33;19.10;99.90
666;DHT22;315;48.738;9.126;2022-07-29T02:40:01;19.00;99.90
666;DHT22;315;48.738;9.126;2022-07-29T02:42:27;19.10;99.90
666;DHT22;315;48.738;9.126;2022-07-29T02:44:53;19.10;99.90
666;DHT22;315;48.738;9.126;2022-07-29T02:47:27;19.10;99.90
666;DHT22;315;48.738;9.126;2022-07-29T02:50:20;19.00;99.90
666;DHT22;315;48.738;9.126;2022-07-29T02:55:31;19.00;99.90
666;DHT22;315;48.738;9.126;2022-07-29T03:00:29;19.00;99.90
666;DHT22;315;48.738;9.126;2022-07-29T03:02:59;19.00;99.90
666;DHT22;315;48.738;9.126;2022-07-29T03:05:26;18.90;99.90
666;DHT22;315;48.738;9.126;2022-07-29T03:08:02;18.90;99.90
666;DHT22;315;48.738;9.126;2022-07-29T03:10:29;18.90;99.90
666;DHT22;315;48.738;9.126;2022-07-29T03:12:55;18.90;99.90
666;DHT22;315;48.738;9.126;2022-07-29T03:15:21;19.00;99.90
666;DHT22;315;48.738;9.126;2022-07-29T03:17:48;19.00;99.90
666;DHT22;315;48.738;9.126;2022-07-29T03:20:14;18.90;99.90
666;DHT22;315;48.738;9.126;2022-07-29T03:22:42;18.90;99.90
666;DHT22;315;48.738;9.126;2022-07-29T03:25:18;18.90;99.90
666;DHT22;315;48.738;9.126;2022-07-29T03:27:44;18.90;99.90
666;DHT22;315;48.738;9.126;2022-07-29T03:30:11;19.00;99.90
666;DHT22;315;48.738;9.126;2022-07-29T03:32:37;19.30;99.90
666;DHT22;315;48.738;9.126;2022-07-29T03:35:03;19.50;99.90
666;DHT22;315;48.738;9.126;2022-07-29T03:37:29;19.70;99.90
666;DHT22;315;48.738;9.126;2022-07-29T03:39:57;19.60;99.90
666;DHT22;315;48.738;9.126;2022-07-29T03:42:31;19.60;99.90
666;DHT22;315;48.738;9.126;2022-07-29T03:44:58;19.60;99.90
666;DHT22;315;48.738;9.126;2022-07-29T03:47:27;19.40;99.90
666;DHT22;315;48.738;9.126;2022-07-29T03:49:56;19.20;99.90
666;DHT22;315;48.738;9.126;2022-07-29T03:52:23;19.10;99.90
666;DHT22;315;48.738;9.126;2022-07-29T03:54:49;19.00;99.90
666;DHT22;315;48.738;9.126;2022-07-29T03:57:16;18.90;99.90
666;DHT22;315;48.738;9.126;2022-07-29T03:59:42;18.80;99.90
666;DHT22;315;48.738;9.126;2022-07-29T04:02:10;19.00;99.90
666;DHT22;315;48.738;9.126;2022-07-29T04:04:36;19.00;99.90
666;DHT22;315;48.738;9.126;2022-07-29T04:07:03;18.90;99.90
666;DHT22;315;48.738;9.126;2022-07-29T04:09:29;19.10;99.90
666;DHT22;315;48.738;9.126;2022-07-29T04:11:54;19.30;99.90
666;DHT22;315;48.738;9.126;2022-07-29T04:14:20;19.50;99.90
666;DHT22;315;48.738;9.126;2022-07-29T04:16:46;19.50;99.90
666;DHT22;315;48.738;9.126;2022-07-29T04:19:12;19.50;99.90
666;DHT22;315;48.738;9.126;2022-07-29T04:21:38;19.50;99.90
666;DHT22;315;48.738;9.126;2022-07-29T04:24:05;19.50;99.90
666;DHT22;315;48.738;9.126;2022-07-29T04:26:30;19.50;99.90
666;DHT22;315;48.738;9.126;2022-07-29T04:28:56;19.50;99.90
666;DHT22;315;48.738;9.126;2022-07-29T04:31:21;19.60;99.90
666;DHT22;315;48.738;9.126;2022-07-29T04:33:47;19.70;99.90
666;DHT22;315;48.738;9.126;2022-07-29T04:36:13;19.70;99.90
666;DHT22;315;48.738;9.126;2022-07-29T04:38:38;19.70;99.90
666;DHT22;315;48.738;9.126;2022-07-29T04:41:04;19.60;99.90
666;DHT22;315;48.738;9.126;2022-07-29T04:43:30;19.80;99.90
666;DHT22;315;48.738;9.126;2022-07-29T04:45:56;19.90;99.90
666;DHT22;315;48.738;9.126;2022-07-29T04:48:21;20.00;99.90
666;DHT22;315;48.738;9.126;2022-07-29T04:50:47;19.90;99.90
666;DHT22;315;48.738;9.126;2022-07-29T04:53:12;19.90;99.90
666;DHT22;315;48.738;9.126;2022-07-29T04:55:38;20.10;99.90
666;DHT22;315;48.738;9.126;2022-07-29T04:58:03;20.60;99.90
666;DHT22;315;48.738;9.126;2022-07-29T05:00:29;20.20;99.90
666;DHT22;315;48.738;9.126;2022-07-29T05:02:54;20.20;99.90
666;DHT22;315;48.738;9.126;2022-07-29T05:05:20;20.20;99.90
666;DHT22;315;48.738;9.126;2022-07-29T05:07:45;20.10;99.90
666;DHT22;315;48.738;9.126;2022-07-29T05:10:11;20.20;99.90
666;DHT22;315;48.738;9.126;2022-07-29T05:12:37;20.40;99.90
666;DHT22;315;48.738;9.126;2022-07-29T05:15:02;20.40;99.90
666;DHT22;315;48.738;9.126;2022-07-29T05:17:28;20.50;99.90
666;DHT22;315;48.738;9.126;2022-07-29T05:19:54;20.50;99.90
666;DHT22;315;48.738;9.126;2022-07-29T05:22:20;20.50;99.90
666;DHT22;315;48.738;9.126;2022-07-29T05:24:46;20.60;99.90
666;DHT22;315;48.738;9.126;2022-07-29T05:27:12;20.70;99.90
666;DHT22;315;48.738;9.126;2022-07-29T05:29:37;20.90;99.90
666;DHT22;315;48.738;9.126;2022-07-29T05:32:04;21.10;99.90
666;DHT22;315;48.738;9.126;2022-07-29T05:34:30;21.20;99.90
666;DHT22;315;48.738;9.126;2022-07-29T05:36:56;21.30;99.90
666;DHT22;315;48.738;9.126;2022-07-29T05:39:22;21.50;99.90
666;DHT22;315;48.738;9.126;2022-07-29T05:41:48;21.70;99.90
666;DHT22;315;48.738;9.126;2022-07-29T05:44:14;21.70;99.90
666;DHT22;315;48.738;9.126;2022-07-29T05:46:39;21.70;99.90
666;DHT22;315;48.738;9.126;2022-07-29T05:49:05;21.50;99.90
666;DHT22;315;48.738;9.126;2022-07-29T05:51:32;21.50;99.90
666;DHT22;315;48.738;9.126;2022-07-29T05:53:57;21.40;99.90
666;DHT22;315;48.738;9.126;2022-07-29T05:56:23;21.50;99.90
666;DHT22;315;48.738;9.126;2022-07-29T05:58:49;21.60;99.90
666;DHT22;315;48.738;9.126;2022-07-29T06:01:14;21.70;99.90
666;DHT22;315;48.738;9.126;2022-07-29T06:03:40;21.80;99.90
666;DHT22;315;48.738;9.126;2022-07-29T06:06:07;21.90;99.90
666;DHT22;315;48.738;9.126;2022-07-29T06:08:33;22.10;99.90
666;DHT22;315;48.738;9.126;2022-07-29T06:10:59;22.10;99.90
666;DHT22;315;48.738;9.126;2022-07-29T06:13:25;22.10;99.90
666;DHT22;315;48.738;9.126;2022-07-29T06:15:50;22.10;99.90
666;DHT22;315;48.738;9.126;2022-07-29T06:18:16;21.90;99.90
666;DHT22;315;48.738;9.126;2022-07-29T06:20:41;21.90;99.90
666;DHT22;315;48.738;9.126;2022-07-29T06:23:07;22.20;99.90
666;DHT22;315;48.738;9.126;2022-07-29T06:25:33;22.60;99.90
666;DHT22;315;48.738;9.126;2022-07-29T06:28:00;23.10;99.90
666;DHT22;315;48.738;9.126;2022-07-29T06:30:26;23.50;99.90
666;DHT22;315;48.738;9.126;2022-07-29T06:32:52;23.70;99.90
666;DHT22;315;48.738;9.126;2022-07-29T06:35:18;24.00;99.90
666;DHT22;315;48.738;9.126;2022-07-29T06:37:43;24.30;99.90
666;DHT22;315;48.738;9.126;2022-07-29T06:40:09;24.50;99.90
666;DHT22;315;48.738;9.126;2022-07-29T06:42:53;24.10;99.90
666;DHT22;315;48.738;9.126;2022-07-29T06:45:19;23.80;99.90
666;DHT22;315;48.738;9.126;2022-07-29T06:47:45;23.80;99.90
666;DHT22;315;48.738;9.126;2022-07-29T06:50:10;23.70;99.90
666;DHT22;315;48.738;9.126;2022-07-29T06:52:38;23.80;99.90
666;DHT22;315;48.738;9.126;2022-07-29T06:55:04;23.60;99.90
666;DHT22;315;48.738;9.126;2022-07-29T06:57:30;23.30;99.90
666;DHT22;315;48.738;9.126;2022-07-29T06:59:58;23.40;99.90
666;DHT22;315;48.738;9.126;2022-07-29T07:02:24;23.60;99.90
666;DHT22;315;48.738;9.126;2022-07-29T07:04:49;24.00;99.90
666;DHT22;315;48.738;9.126;2022-07-29T07:07:15;24.20;99.90
666;DHT22;315;48.738;9.126;2022-07-29T07:09:40;24.10;99.90
666;DHT22;315;48.738;9.126;2022-07-29T07:12:06;24.50;99.90
666;DHT22;315;48.738;9.126;2022-07-29T07:14:32;24.80;99.90
666;DHT22;315;48.738;9.126;2022-07-29T07:16:57;24.80;99.90
666;DHT22;315;48.738;9.126;2022-07-29T07:19:25;25.00;99.90
666;DHT22;315;48.738;9.126;2022-07-29T07:21:52;25.40;99.90
666;DHT22;315;48.738;9.126;2022-07-29T07:24:17;25.30;99.90
666;DHT22;315;48.738;9.126;2022-07-29T07:26:43;25.70;99.90
666;DHT22;315;48.738;9.126;2022-07-29T07:29:08;25.70;99.90
666;DHT22;315;48.738;9.126;2022-07-29T07:31:35;25.70;99.90
666;DHT22;315;48.738;9.126;2022-07-29T07:34:01;25.90;99.90
666;DHT22;315;48.738;9.126;2022-07-29T07:36:26;26.00;99.90
666;DHT22;315;48.738;9.126;2022-07-29T07:38:52;26.30;99.90
666;DHT22;315;48.738;9.126;2022-07-29T07:41:17;26.20;99.90
666;DHT22;315;48.738;9.126;2022-07-29T07:43:43;26.70;99.90
666;DHT22;315;48.738;9.126;2022-07-29T07:46:08;27.00;99.90
666;DHT22;315;48.738;9.126;2022-07-29T07:48:34;27.00;99.90
666;DHT22;315;48.738;9.126;2022-07-29T07:51:00;27.50;99.90
666;DHT22;315;48.738;9.126;2022-07-29T07:53:25;27.70;99.90
666;DHT22;315;48.738;9.126;2022-07-29T07:55:51;27.90;99.90
666;DHT22;315;48.738;9.126;2022-07-29T07:58:17;28.00;99.90
666;DHT22;315;48.738;9.126;2022-07-29T08:00:42;28.20;99.90
666;DHT22;315;48.738;9.126;2022-07-29T08:03:08;28.20;99.90
666;DHT22;315;48.738;9.126;2022-07-29T08:05:33;28.40;99.90
666;DHT22;315;48.738;9.126;2022-07-29T08:07:59;28.50;99.90
666;DHT22;315;48.738;9.126;2022-07-29T08:10:25;28.40;99.90
666;DHT22;315;48.738;9.126;2022-07-29T08:13:20;28.40;99.90
666;DHT22;315;48.738;9.126;2022-07-29T08:15:46;28.70;99.90
666;DHT22;315;48.738;9.126;2022-07-29T08:18:13;29.00;99.90
666;DHT22;315;48.738;9.126;2022-07-29T08:20:39;29.50;99.60
666;DHT22;315;48.738;9.126;2022-07-29T08:23:06;29.60;96.30
666;DHT22;315;48.738;9.126;2022-07-29T08:25:35;29.70;93.80
666;DHT22;315;48.738;9.126;2022-07-29T08:28:01;30.10;92.10
666;DHT22;315;48.738;9.126;2022-07-29T08:30:26;30.10;91.50
666;DHT22;315;48.738;9.126;2022-07-29T08:32:52;30.20;90.30
666;DHT22;315;48.738;9.126;2022-07-29T08:35:19;30.40;90.90
666;DHT22;315;48.738;9.126;2022-07-29T08:37:45;30.10;87.40
666;DHT22;315;48.738;9.126;2022-07-29T08:40:11;30.40;87.30
666;DHT22;315;48.738;9.126;2022-07-29T08:42:36;30.40;85.50
666;DHT22;315;48.738;9.126;2022-07-29T08:45:03;30.00;84.70
666;DHT22;315;48.738;9.126;2022-07-29T08:47:29;29.80;85.70
666;DHT22;315;48.738;9.126;2022-07-29T08:49:55;29.80;87.00
666;DHT22;315;48.738;9.126;2022-07-29T08:52:21;30.30;86.70
666;DHT22;315;48.738;9.126;2022-07-29T08:54:49;30.80;85.20
666;DHT22;315;48.738;9.126;2022-07-29T08:57:15;31.10;83.80
666;DHT22;315;48.738;9.126;2022-07-29T08:59:42;31.50;81.70
666;DHT22;315;48.738;9.126;2022-07-29T09:02:24;31.60;80.40
666;DHT22;315;48.738;9.126;2022-07-29T09:04:51;31.60;78.90
666;DHT22;315;48.738;9.126;2022-07-29T09:07:18;31.70;78.90
666;DHT22;315;48.738;9.126;2022-07-29T09:09:44;31.70;77.70
666;DHT22;315;48.738;9.126;2022-07-29T09:12:10;31.50;76.10
666;DHT22;315;48.738;9.126;2022-07-29T09:14:39;31.70;75.60
666;DHT22;315;48.738;9.126;2022-07-29T09:17:05;31.90;75.50
666;DHT22;315;48.738;9.126;2022-07-29T09:19:33;32.20;73.50
666;DHT22;315;48.738;9.126;2022-07-29T09:22:01;32.70;72.80
666;DHT22;315;48.738;9.126;2022-07-29T09:24:38;33.10;70.40
666;DHT22;315;48.738;9.126;2022-07-29T09:27:18;32.60;69.40
666;DHT22;315;48.738;9.126;2022-07-29T09:29:55;32.80;69.30
666;DHT22;315;48.738;9.126;2022-07-29T09:32:21;32.60;69.50
666;DHT22;315;48.738;9.126;2022-07-29T09:34:46;32.90;68.80
666;DHT22;315;48.738;9.126;2022-07-29T09:37:25;33.20;67.00
666;DHT22;315;48.738;9.126;2022-07-29T09:39:51;32.70;67.20
666;DHT22;315;48.738;9.126;2022-07-29T09:42:28;32.70;66.90
666;DHT22;315;48.738;9.126;2022-07-29T09:44:53;33.50;66.00
666;DHT22;315;48.738;9.126;2022-07-29T09:47:19;33.80;65.00
666;DHT22;315;48.738;9.126;2022-07-29T09:49:53;34.20;62.70
666;DHT22;315;48.738;9.126;2022-07-29T09:52:20;34.70;61.50
666;DHT22;315;48.738;9.126;2022-07-29T09:54:46;35.40;60.30
666;DHT22;315;48.738;9.126;2022-07-29T09:57:28;36.00;59.30
666;DHT22;315;48.738;9.126;2022-07-29T10:02:32;35.50;58.00
666;DHT22;315;48.738;9.126;2022-07-29T10:05:00;35.40;57.50
666;DHT22;315;48.738;9.126;2022-07-29T10:07:27;34.80;57.30
666;DHT22;315;48.738;9.126;2022-07-29T10:10:08;33.60;58.30
666;DHT22;315;48.738;9.126;2022-07-29T10:12:33;33.20;59.30
666;DHT22;315;48.738;9.126;2022-07-29T10:15:01;33.70;59.40
666;DHT22;315;48.738;9.126;2022-07-29T10:17:27;33.70;58.40
666;DHT22;315;48.738;9.126;2022-07-29T10:19:53;33.30;58.90
666;DHT22;315;48.738;9.126;2022-07-29T10:22:19;33.00;59.70
666;DHT22;315;48.738;9.126;2022-07-29T10:24:44;32.80;60.30
666;DHT22;315;48.738;9.126;2022-07-29T10:27:10;32.00;60.20
666;DHT22;315;48.738;9.126;2022-07-29T10:29:36;31.90;61.30
666;DHT22;315;48.738;9.126;2022-07-29T10:35:12;30.50;67.20
666;DHT22;315;48.738;9.126;2022-07-29T10:38:10;30.20;68.90
666;DHT22;315;48.738;9.126;2022-07-29T10:43:47;29.30;80.80
666;DHT22;315;48.738;9.126;2022-07-29T10:46:14;29.00;87.80
666;DHT22;315;48.738;9.126;2022-07-29T10:52:06;28.10;99.90
666;DHT22;315;48.738;9.126;2022-07-29T10:57:29;27.00;99.90
666;DHT22;315;48.738;9.126;2022-07-29T11:05:07;24.70;99.90
666;DHT22;315;48.738;9.126;2022-07-29T11:07:38;23.90;99.90
666;DHT22;315;48.738;9.126;2022-07-29T11:15:05;22.40;99.90
666;DHT22;315;48.738;9.126;2022-07-29T11:20:43;21.80;99.90
666;DHT22;315;48.738;9.126;2022-07-29T11:23:21;21.80;99.90
666;DHT22;315;48.738;9.126;2022-07-29T11:34:31;21.80;99.90
666;DHT22;315;48.738;9.126;2022-07-29T11:39:43;21.80;99.90
666;DHT22;315;48.738;9.126;2022-07-29T11:45:02;21.70;99.90
666;DHT22;315;48.738;9.126;2022-07-29T11:47:33;21.70;99.90
666;DHT22;315;48.738;9.126;2022-07-29T11:50:01;21.80;99.90
666;DHT22;315;48.738;9.126;2022-07-29T11:52:54;21.70;99.90
666;DHT22;315;48.738;9.126;2022-07-29T11:55:21;21.70;99.90
666;DHT22;315;48.738;9.126;2022-07-29T11:58:00;21.70;99.90
666;DHT22;315;48.738;9.126;2022-07-29T12:02:53;21.20;99.90
666;DHT22;315;48.738;9.126;2022-07-29T12:05:19;21.00;99.90
666;DHT22;315;48.738;9.126;2022-07-29T12:07:46;21.10;99.90
666;DHT22;315;48.738;9.126;2022-07-29T12:10:12;21.20;99.90
666;DHT22;315;48.738;9.126;2022-07-29T12:12:38;21.20;99.90
666;DHT22;315;48.738;9.126;2022-07-29T12:15:17;21.20;99.90
666;DHT22;315;48.738;9.126;2022-07-29T12:17:45;21.30;99.90
666;DHT22;315;48.738;9.126;2022-07-29T12:20:11;21.30;99.90
666;DHT22;315;48.738;9.126;2022-07-29T12:22:40;21.40;99.90
666;DHT22;315;48.738;9.126;2022-07-29T12:25:10;21.50;99.90
666;DHT22;315;48.738;9.126;2022-07-29T12:27:37;21.50;99.90
666;DHT22;315;48.738;9.126;2022-07-29T12:30:08;21.40;99.90
666;DHT22;315;48.738;9.126;2022-07-29T12:32:36;21.50;99.90
666;DHT22;315;48.738;9.126;2022-07-29T12:35:07;21.60;99.90
666;DHT22;315;48.738;9.126;2022-07-29T12:37:38;21.70;99.90
666;DHT22;315;48.738;9.126;2022-07-29T12:40:05;21.90;99.90
666;DHT22;315;48.738;9.126;2022-07-29T12:42:31;22.20;99.90
666;DHT22;315;48.738;9.126;2022-07-29T12:44:57;22.30;99.90
666;DHT22;315;48.738;9.126;2022-07-29T12:47:22;22.50;99.90
666;DHT22;315;48.738;9.126;2022-07-29T12:49:49;22.70;99.90
666;DHT22;315;48.738;9.126;2022-07-29T12:52:31;22.50;99.90
666;DHT22;315;48.738;9.126;2022-07-29T12:54:58;22.40;99.90
666;DHT22;315;48.738;9.126;2022-07-29T12:57:24;22.10;99.90
666;DHT22;315;48.738;9.126;2022-07-29T13:00:02;22.20;99.90
666;DHT22;315;48.738;9.126;2022-07-29T13:02:28;22.30;99.90
666;DHT22;315;48.738;9.126;2022-07-29T13:04:58;22.10;99.90
666;DHT22;315;48.738;9.126;2022-07-29T13:07:29;22.30;99.90
666;DHT22;315;48.738;9.126;2022-07-29T13:12:36;22.00;99.90
666;DHT22;315;48.738;9.126;2022-07-29T13:15:12;21.70;99.90
666;DHT22;315;48.738;9.126;2022-07-29T13:17:42;21.30;99.90
666;DHT22;315;48.738;9.126;2022-07-29T13:20:11;20.90;99.90
666;DHT22;315;48.738;9.126;2022-07-29T13:22:41;20.60;99.90
666;DHT22;315;48.738;9.126;2022-07-29T13:25:09;20.40;99.90
666;DHT22;315;48.738;9.126;2022-07-29T13:27:35;20.30;99.90
666;DHT22;315;48.738;9.126;2022-07-29T13:30:07;20.20;99.90
666;DHT22;315;48.738;9.126;2022-07-29T13:32:33;20.10;99.90
666;DHT22;315;48.738;9.126;2022-07-29T13:35:05;20.20;99.90
666;DHT22;315;48.738;9.126;2022-07-29T13:37:31;20.20;99.90
666;DHT22;315;48.738;9.126;2022-07-29T13:39:59;20.20;99.90
666;DHT22;315;48.738;9.126;2022-07-29T13:42:26;20.10;99.90
666;DHT22;315;48.738;9.126;2022-07-29T13:44:51;20.10;99.90
666;DHT22;315;48.738;9.126;2022-07-29T13:47:20;20.20;99.90
666;DHT22;315;48.738;9.126;2022-07-29T13:49:46;20.40;99.90
666;DHT22;315;48.738;9.126;2022-07-29T13:52:12;20.60;99.90
666;DHT22;315;48.738;9.126;2022-07-29T13:54:37;20.70;99.90
666;DHT22;315;48.738;9.126;2022-07-29T13:57:04;21.00;99.90
666;DHT22;315;48.738;9.126;2022-07-29T13:59:30;21.20;99.90
666;DHT22;315;48.738;9.126;2022-07-29T14:01:55;21.40;99.90
666;DHT22;315;48.738;9.126;2022-07-29T14:04:21;21.60;99.90
666;DHT22;315;48.738;9.126;2022-07-29T14:06:48;22.00;99.90
666;DHT22;315;48.738;9.126;2022-07-29T14:09:14;22.30;99.90
666;DHT22;315;48.738;9.126;2022-07-29T14:11:39;22.70;99.90
666;DHT22;315;48.738;9.126;2022-07-29T14:14:05;22.90;99.90
666;DHT22;315;48.738;9.126;2022-07-29T14:16:31;23.30;99.90
666;DHT22;315;48.738;9.126;2022-07-29T14:18:56;23.40;99.90
666;DHT22;315;48.738;9.126;2022-07-29T14:21:22;23.80;99.90
666;DHT22;315;48.738;9.126;2022-07-29T14:23:47;23.70;99.90
666;DHT22;315;48.738;9.126;2022-07-29T14:26:13;23.70;99.90
666;DHT22;315;48.738;9.126;2022-07-29T14:28:39;24.00;99.90
666;DHT22;315;48.738;9.126;2022-07-29T14:31:04;24.20;99.90
666;DHT22;315;48.738;9.126;2022-07-29T14:33:30;24.30;99.90
666;DHT22;315;48.738;9.126;2022-07-29T14:35:55;24.20;99.90
666;DHT22;315;48.738;9.126;2022-07-29T14:38:21;24.30;99.90
666;DHT22;315;48.738;9.126;2022-07-29T14:40:46;24.20;99.90
666;DHT22;315;48.738;9.126;2022-07-29T14:43:13;24.50;99.90
666;DHT22;315;48.738;9.126;2022-07-29T14:45:39;24.50;99.90
666;DHT22;315;48.738;9.126;2022-07-29T14:48:05;24.60;99.90
666;DHT22;315;48.738;9.126;2022-07-29T14:50:30;24.70;99.90
666;DHT22;315;48.738;9.126;2022-07-29T14:52:56;24.80;99.90
666;DHT22;315;48.738;9.126;2022-07-29T14:55:22;24.80;99.90
666;DHT22;315;48.738;9.126;2022-07-29T14:57:48;24.90;99.90
666;DHT22;315;48.738;9.126;2022-07-29T15:00:15;24.90;99.90
666;DHT22;315;48.738;9.126;2022-07-29T15:02:41;25.20;99.90
666;DHT22;315;48.738;9.126;2022-07-29T15:05:07;25.00;99.90
666;DHT22;315;48.738;9.126;2022-07-29T15:07:33;25.20;99.90
666;DHT22;315;48.738;9.126;2022-07-29T15:09:59;25.10;99.90
666;DHT22;315;48.738;9.126;2022-07-29T15:12:24;25.40;99.90
666;DHT22;315;48.738;9.126;2022-07-29T15:14:50;25.20;99.90
666;DHT22;315;48.738;9.126;2022-07-29T15:17:15;25.10;99.90
666;DHT22;315;48.738;9.126;2022-07-29T15:19:41;25.00;99.90
666;DHT22;315;48.738;9.126;2022-07-29T15:22:06;25.10;99.90
666;DHT22;315;48.738;9.126;2022-07-29T15:24:32;25.10;99.90
666;DHT22;315;48.738;9.126;2022-07-29T15:26:58;25.10;99.90
666;DHT22;315;48.738;9.126;2022-07-29T15:29:23;25.10;99.90
666;DHT22;315;48.738;9.126;2022-07-29T15:31:49;25.00;99.90
666;DHT22;315;48.738;9.126;2022-07-29T15:34:15;25.00;99.90
666;DHT22;315;48.738;9.126;2022-07-29T15:36:41;24.80;99.90
666;DHT22;315;48.738;9.126;2022-07-29T15:39:06;24.50;99.90
666;DHT22;315;48.738;9.126;2022-07-29T15:41:33;24.40;99.90
666;DHT22;315;48.738;9.126;2022-07-29T15:43:59;24.20;99.90
666;DHT22;315;48.738;9.126;2022-07-29T15:46:24;24.10;99.90
666;DHT22;315;48.738;9.126;2022-07-29T15:49:09;24.20;99.90
666;DHT22;315;48.738;9.126;2022-07-29T15:51:34;24.10;99.90
666;DHT22;315;48.738;9.126;2022-07-29T15:54:04;24.10;99.90
666;DHT22;315;48.738;9.126;2022-07-29T15:56:30;24.20;99.90
666;DHT22;315;48.738;9.126;2022-07-29T15:58:56;24.30;99.90
666;DHT22;315;48.738;9.126;2022-07-29T16:01:21;24.40;99.90
666;DHT22;315;48.738;9.126;2022-07-29T16:03:47;24.50;99.90
666;DHT22;315;48.738;9.126;2022-07-29T16:06:13;24.60;99.90
666;DHT22;315;48.738;9.126;2022-07-29T16:08:38;24.30;99.90
666;DHT22;315;48.738;9.126;2022-07-29T16:11:04;24.50;99.90
666;DHT22;315;48.738;9.126;2022-07-29T16:13:30;24.60;99.90
666;DHT22;315;48.738;9.126;2022-07-29T16:15:55;24.60;99.90
666;DHT22;315;48.738;9.126;2022-07-29T16:18:21;24.20;99.90
666;DHT22;315;48.738;9.126;2022-07-29T16:20:47;24.00;99.90
666;DHT22;315;48.738;9.126;2022-07-29T16:23:12;23.90;99.90
666;DHT22;315;48.738;9.126;2022-07-29T16:25:38;23.90;99.90
666;DHT22;315;48.738;9.126;2022-07-29T16:28:04;23.90;99.90
666;DHT22;315;48.738;9.126;2022-07-29T16:30:30;24.00;99.90
666;DHT22;315;48.738;9.126;2022-07-29T16:32:55;24.20;99.90
666;DHT22;315;48.738;9.126;2022-07-29T16:35:21;24.10;99.90
666;DHT22;315;48.738;9.126;2022-07-29T16:37:47;24.00;99.90
666;DHT22;315;48.738;9.126;2022-07-29T16:40:12;24.00;99.90
666;DHT22;315;48.738;9.126;2022-07-29T16:42:38;23.80;99.90
666;DHT22;315;48.738;9.126;2022-07-29T16:45:05;23.70;99.90
666;DHT22;315;48.738;9.126;2022-07-29T16:47:30;23.70;99.90
666;DHT22;315;48.738;9.126;2022-07-29T16:49:56;23.60;99.90
666;DHT22;315;48.738;9.126;2022-07-29T16:52:22;23.50;99.90
666;DHT22;315;48.738;9.126;2022-07-29T16:54:47;23.40;99.90
666;DHT22;315;48.738;9.126;2022-07-29T16:57:13;23.50;99.90
666;DHT22;315;48.738;9.126;2022-07-29T16:59:38;23.40;99.90
666;DHT22;315;48.738;9.126;2022-07-29T17:02:04;23.40;99.90
666;DHT22;315;48.738;9.126;2022-07-29T17:04:30;23.50;99.90
666;DHT22;315;48.738;9.126;2022-07-29T17:06:56;23.60;99.90
666;DHT22;315;48.738;9.126;2022-07-29T17:09:22;23.60;99.90
666;DHT22;315;48.738;9.126;2022-07-29T17:11:48;23.50;99.90
666;DHT22;315;48.738;9.126;2022-07-29T17:14:26;23.40;99.90
666;DHT22;315;48.738;9.126;2022-07-29T17:16:54;23.40;99.90
666;DHT22;315;48.738;9.126;2022-07-29T17:19:20;23.40;99.90
666;DHT22;315;48.738;9.126;2022-07-29T17:21:45;23.50;99.90
666;DHT22;315;48.738;9.126;2022-07-29T17:24:11;23.50;99.90
666;DHT22;315;48.738;9.126;2022-07-29T17:26:36;23.60;99.90
666;DHT22;315;48.738;9.126;2022-07-29T17:29:04;23.60;99.90
666;DHT22;315;48.738;9.126;2022-07-29T17:31:30;23.70;99.90
666;DHT22;315;48.738;9.126;2022-07-29T17:33:55;23.70;99.90
666;DHT22;315;48.738;9.126;2022-07-29T17:36:21;23.80;99.90